createdAt,value
2023-04-09T00:02:39.011Z,23.07
2023-04-09T00:05:27.204Z,22.67
2023-04-09T00:08:13.989Z,23.03
2023-04-09T00:11:00.941Z,22.97
2023-04-09T00:13:47.343Z,22.13
2023-04-09T00:16:34.361Z,23.07
2023-04-09T00:19:21.436Z,23.23
2023-04-09T00:22:09.249Z,22.67
2023-04-09T00:24:56.030Z,23.07
2023-04-09T00:27:42.843Z,24.20
2023-04-09T00:30:30.026Z,24.93
2023-04-09T00:33:16.564Z,23.00
2023-04-09T00:36:03.479Z,23.13
2023-04-09T00:38:54.218Z,22.90
2023-04-09T00:41:41.277Z,22.20
2023-04-09T00:44:28.052Z,23.00
2023-04-09T00:47:14.885Z,21.87
2023-04-09T00:50:02.383Z,22.23
2023-04-09T00:52:49.078Z,21.63
2023-04-09T00:55:37.776Z,22.17
2023-04-09T00:58:24.538Z,21.33
2023-04-09T01:01:11.509Z,23.07
2023-04-09T01:03:58.921Z,23.10
2023-04-09T01:06:52.027Z,22.83
2023-04-09T01:09:43.566Z,22.87
2023-04-09T01:12:37.878Z,21.93
2023-04-09T01:15:28.554Z,21.83
2023-04-09T01:18:24.196Z,21.50
2023-04-09T01:21:14.709Z,22.53
2023-04-09T01:24:12.059Z,22.80
2023-04-09T01:27:07.578Z,21.77
2023-04-09T01:30:17.366Z,21.67
2023-04-09T01:33:05.301Z,22.77
2023-04-09T01:35:53.477Z,22.77
2023-04-09T01:38:43.228Z,20.30
2023-04-09T01:41:33.875Z,21.90
2023-04-09T01:44:21.855Z,21.13
2023-04-09T01:47:11.112Z,20.53
2023-04-09T01:49:57.705Z,20.57
2023-04-09T01:52:44.647Z,17.37
2023-04-09T01:55:31.251Z,15.57
2023-04-09T01:58:18.035Z,17.13
2023-04-09T02:01:12.015Z,18.07
2023-04-09T02:04:04.318Z,19.40
2023-04-09T02:06:59.692Z,20.03
2023-04-09T02:09:48.969Z,19.73
2023-04-09T02:12:38.392Z,19.87
2023-04-09T02:15:25.915Z,18.83
2023-04-09T02:18:23.304Z,18.13
2023-04-09T02:21:13.811Z,18.10
2023-04-09T02:24:00.547Z,17.30
2023-04-09T02:26:47.687Z,19.23
2023-04-09T02:29:34.921Z,14.43
2023-04-09T02:32:21.767Z,17.47
2023-04-09T02:35:09.113Z,18.17
2023-04-09T02:37:57.440Z,17.63
2023-04-09T02:40:44.473Z,18.77
2023-04-09T02:43:31.285Z,19.33
2023-04-09T02:46:18.013Z,17.57
2023-04-09T02:49:04.658Z,18.53
2023-04-09T02:51:51.338Z,19.00
2023-04-09T02:54:39.727Z,18.87
2023-04-09T02:57:26.233Z,18.30
2023-04-09T03:00:14.032Z,19.00
2023-04-09T03:03:01.097Z,18.93
2023-04-09T03:05:47.822Z,18.17
2023-04-09T03:08:34.633Z,19.80
2023-04-09T03:11:22.884Z,20.40
2023-04-09T03:14:09.675Z,18.23
2023-04-09T03:16:56.864Z,16.03
2023-04-09T03:19:43.638Z,16.07
2023-04-09T03:22:30.974Z,17.03
2023-04-09T03:25:19.656Z,16.57
2023-04-09T03:28:09.408Z,16.27
2023-04-09T03:31:01.305Z,16.80
2023-04-09T03:33:49.008Z,16.47
2023-04-09T03:36:35.921Z,17.47
2023-04-09T03:39:24.004Z,15.97
2023-04-09T03:42:11.077Z,15.27
2023-04-09T03:45:08.321Z,15.90
2023-04-09T03:48:00.809Z,16.43
2023-04-09T03:50:47.533Z,15.27
2023-04-09T03:53:38.909Z,18.37
2023-04-09T03:56:26.695Z,16.30
2023-04-09T03:59:13.619Z,16.23
2023-04-09T04:02:05.496Z,14.90
2023-04-09T04:04:55.235Z,18.53
2023-04-09T04:07:45.105Z,17.30
2023-04-09T04:10:37.332Z,18.67
2023-04-09T04:13:24.260Z,17.67
2023-04-09T04:16:15.592Z,19.17
2023-04-09T04:19:03.554Z,17.47
2023-04-09T04:21:52.952Z,17.93
2023-04-09T04:24:40.107Z,18.47
2023-04-09T04:27:27.338Z,17.63
2023-04-09T04:30:14.189Z,16.37
2023-04-09T04:33:33.532Z,16.17
2023-04-09T04:36:21.775Z,16.50
2023-04-09T04:39:11.591Z,17.93
2023-04-09T04:42:20.406Z,18.07
2023-04-09T04:45:09.764Z,16.67
2023-04-09T04:48:02.664Z,15.90
2023-04-09T04:50:58.096Z,17.37
2023-04-09T04:53:49.602Z,17.00
2023-04-09T04:56:36.402Z,16.33
2023-04-09T04:59:43.305Z,16.40
2023-04-09T05:02:32.455Z,15.80
2023-04-09T05:05:46.097Z,15.77
2023-04-09T05:08:33.369Z,15.10
2023-04-09T05:11:22.162Z,15.77
2023-04-09T05:14:09.125Z,15.63
2023-04-09T05:16:55.990Z,15.63
2023-04-09T05:19:53.758Z,14.67
2023-04-09T05:22:47.614Z,15.33
2023-04-09T05:25:35.742Z,15.13
2023-04-09T05:28:25.124Z,14.97
2023-04-09T05:31:22.605Z,16.23
2023-04-09T05:34:36.320Z,15.23
2023-04-09T05:37:24.473Z,14.93
2023-04-09T05:40:14.920Z,15.43
2023-04-09T05:43:02.345Z,15.30
2023-04-09T05:45:59.376Z,14.80
2023-04-09T05:48:46.219Z,14.20
2023-04-09T05:51:33.034Z,15.23
2023-04-09T05:54:23.866Z,15.53
2023-04-09T05:57:11.575Z,14.33
2023-04-09T06:00:02.399Z,12.73
2023-04-09T06:02:50.875Z,13.37
2023-04-09T06:05:37.706Z,13.23
2023-04-09T06:08:24.534Z,14.13
2023-04-09T06:11:12.000Z,12.87
2023-04-09T06:13:58.651Z,13.13
2023-04-09T06:16:45.604Z,13.43
2023-04-09T06:19:34.507Z,12.83
2023-04-09T06:22:21.390Z,12.53
2023-04-09T06:25:08.775Z,13.23
2023-04-09T06:27:55.786Z,12.97
2023-04-09T06:30:42.274Z,12.50
2023-04-09T06:33:29.363Z,13.30
2023-04-09T06:36:17.464Z,11.33
2023-04-09T06:39:04.102Z,11.80
2023-04-09T06:41:50.693Z,11.27
2023-04-09T06:44:46.012Z,10.97
2023-04-09T06:47:32.845Z,10.87
2023-04-09T06:50:19.736Z,11.80
2023-04-09T06:53:08.334Z,12.03
2023-04-09T06:55:56.705Z,13.67
2023-04-09T06:58:43.685Z,11.80
2023-04-09T07:01:30.618Z,11.53
2023-04-09T07:04:17.550Z,11.63
2023-04-09T07:07:04.194Z,12.27
2023-04-09T07:09:54.369Z,12.53
2023-04-09T07:12:41.519Z,13.67
2023-04-09T07:15:28.242Z,11.53
2023-04-09T07:18:14.612Z,12.07
2023-04-09T07:21:04.386Z,12.30
2023-04-09T07:23:51.239Z,12.23
2023-04-09T07:26:39.486Z,11.63
2023-04-09T07:29:26.258Z,11.90
2023-04-09T07:32:13.104Z,13.43
2023-04-09T07:35:00.662Z,11.93
2023-04-09T07:37:47.298Z,12.43
2023-04-09T07:40:36.829Z,11.97
2023-04-09T07:43:24.843Z,11.97
2023-04-09T07:46:11.967Z,12.50
2023-04-09T07:48:58.653Z,12.17
2023-04-09T07:51:45.601Z,13.20
2023-04-09T07:54:32.597Z,12.17
2023-04-09T07:57:19.330Z,12.27
2023-04-09T08:00:08.822Z,13.47
2023-04-09T08:03:04.168Z,13.40
2023-04-09T08:05:51.112Z,12.20
2023-04-09T08:08:38.216Z,12.20
2023-04-09T08:11:26.067Z,12.87
2023-04-09T08:14:13.069Z,13.00
2023-04-09T08:17:01.605Z,12.90
2023-04-09T08:19:49.596Z,13.57
2023-04-09T08:22:36.884Z,12.93
2023-04-09T08:25:23.812Z,13.77
2023-04-09T08:28:10.788Z,13.77
2023-04-09T08:30:57.366Z,12.73
2023-04-09T08:33:45.370Z,13.17
2023-04-09T08:36:34.831Z,13.03
2023-04-09T08:39:21.847Z,12.13
2023-04-09T08:42:10.414Z,11.17
2023-04-09T08:44:57.050Z,11.10
2023-04-09T08:47:46.592Z,11.33
2023-04-09T08:50:34.865Z,10.43
2023-04-09T08:53:23.358Z,11.13
2023-04-09T08:56:09.812Z,11.97
2023-04-09T08:58:57.714Z,11.97
2023-04-09T09:01:44.697Z,11.80
2023-04-09T09:04:45.224Z,11.80
2023-04-09T09:07:34.292Z,13.37
2023-04-09T09:10:20.926Z,11.80
2023-04-09T09:13:23.103Z,14.00
2023-04-09T09:16:14.508Z,13.70
2023-04-09T09:19:01.856Z,12.60
2023-04-09T09:21:56.865Z,11.10
2023-04-09T09:24:50.333Z,11.37
2023-04-09T09:27:40.543Z,11.90
2023-04-09T09:30:28.780Z,11.23
2023-04-09T09:33:15.728Z,10.60
2023-04-09T09:36:03.982Z,12.93
2023-04-09T09:38:55.841Z,12.00
2023-04-09T09:41:44.635Z,11.37
2023-04-09T09:44:34.593Z,11.33
2023-04-09T09:47:22.545Z,12.33
2023-04-09T09:50:10.346Z,12.80
2023-04-09T09:53:03.526Z,12.50
2023-04-09T09:55:53.198Z,11.50
2023-04-09T09:58:46.394Z,12.03
2023-04-09T10:01:34.428Z,12.57
2023-04-09T10:04:22.484Z,12.43
2023-04-09T10:07:09.814Z,12.07
2023-04-09T10:09:58.098Z,12.63
2023-04-09T10:12:46.439Z,13.87
2023-04-09T10:15:34.793Z,12.43
2023-04-09T10:18:21.643Z,12.20
2023-04-09T10:21:16.345Z,13.60
2023-04-09T10:24:06.365Z,13.57
2023-04-09T10:26:56.629Z,12.30
2023-04-09T10:29:50.537Z,12.67
2023-04-09T10:32:40.072Z,12.60
2023-04-09T10:35:27.269Z,13.07
2023-04-09T10:38:15.999Z,12.80
2023-04-09T10:41:08.935Z,12.63
2023-04-09T10:43:55.446Z,13.83
2023-04-09T10:46:43.160Z,13.43
2023-04-09T10:49:38.012Z,12.20
2023-04-09T10:52:31.467Z,12.77
2023-04-09T10:55:38.054Z,13.33
2023-04-09T10:58:24.872Z,12.47
2023-04-09T11:01:24.492Z,13.70
2023-04-09T11:04:26.390Z,12.83
2023-04-09T11:07:22.688Z,12.67
2023-04-09T11:10:10.813Z,13.47
2023-04-09T11:12:57.737Z,11.70
2023-04-09T11:15:46.034Z,13.70
2023-04-09T11:18:34.627Z,13.23
2023-04-09T11:21:21.335Z,14.10
2023-04-09T11:24:09.464Z,14.30
2023-04-09T11:26:56.857Z,12.60
2023-04-09T11:29:43.625Z,14.20
2023-04-09T11:32:32.482Z,13.20
2023-04-09T11:35:21.561Z,12.50
2023-04-09T11:38:08.973Z,12.67
2023-04-09T11:40:59.086Z,13.70
2023-04-09T11:43:46.204Z,11.87
2023-04-09T11:46:34.007Z,13.13
2023-04-09T11:49:21.361Z,11.30
2023-04-09T11:52:08.195Z,12.47
2023-04-09T11:54:54.903Z,13.47
2023-04-09T11:57:44.826Z,11.60
2023-04-09T12:00:33.811Z,13.40
2023-04-09T12:03:28.468Z,12.43
2023-04-09T12:06:15.051Z,13.03
2023-04-09T12:09:02.871Z,13.37
2023-04-09T12:11:49.426Z,12.87
2023-04-09T12:14:37.614Z,12.50
2023-04-09T12:17:24.472Z,11.43
2023-04-09T12:20:12.057Z,13.00
2023-04-09T12:23:03.587Z,13.37
2023-04-09T12:25:50.796Z,11.93
2023-04-09T12:28:37.554Z,13.60
2023-04-09T12:31:25.973Z,13.30
2023-04-09T12:34:13.419Z,12.33
2023-04-09T12:37:00.570Z,13.10
2023-04-09T12:39:48.003Z,12.90
2023-04-09T12:42:34.594Z,12.53
2023-04-09T12:45:22.325Z,12.73
2023-04-09T12:48:10.844Z,12.37
2023-04-09T12:50:57.388Z,11.70
2023-04-09T12:53:44.087Z,13.57
2023-04-09T12:56:32.064Z,12.50
2023-04-09T12:59:18.649Z,13.53
2023-04-09T13:02:05.695Z,13.13
2023-04-09T13:04:54.015Z,12.40
2023-04-09T13:07:42.877Z,13.10
2023-04-09T13:10:30.542Z,13.37
2023-04-09T13:13:17.315Z,12.83
2023-04-09T13:16:04.269Z,12.33
2023-04-09T13:18:52.124Z,12.83
2023-04-09T13:21:42.393Z,13.57
2023-04-09T13:24:32.031Z,13.80
2023-04-09T13:27:21.212Z,11.80
2023-04-09T13:30:11.983Z,12.47
2023-04-09T13:32:58.714Z,12.37
2023-04-09T13:35:45.416Z,12.17
2023-04-09T13:38:33.731Z,12.77
2023-04-09T13:41:20.707Z,12.40
2023-04-09T13:44:07.575Z,12.83
2023-04-09T13:46:55.715Z,12.00
2023-04-09T13:49:46.053Z,12.53
2023-04-09T13:52:34.106Z,12.17
2023-04-09T13:55:22.054Z,11.03
2023-04-09T13:58:08.620Z,12.57
2023-04-09T14:00:55.689Z,11.97
2023-04-09T14:03:43.312Z,11.53
2023-04-09T14:06:29.778Z,11.73
2023-04-09T14:09:16.656Z,10.87
2023-04-09T14:12:04.876Z,11.03
2023-04-09T14:14:51.725Z,11.33
2023-04-09T14:17:38.601Z,11.33
2023-04-09T14:20:25.696Z,11.90
2023-04-09T14:23:12.538Z,11.43
2023-04-09T14:25:59.492Z,11.60
2023-04-09T14:28:47.893Z,11.77
2023-04-09T14:31:37.297Z,11.80
2023-04-09T14:34:24.825Z,12.10
2023-04-09T14:37:12.439Z,10.60
2023-04-09T14:39:59.197Z,11.43
2023-04-09T14:42:46.883Z,11.40
2023-04-09T14:45:34.898Z,11.13
2023-04-09T14:48:21.697Z,10.90
2023-04-09T14:51:10.909Z,10.47
2023-04-09T14:53:58.018Z,10.73
2023-04-09T14:56:44.779Z,11.67
2023-04-09T14:59:31.583Z,10.73
2023-04-09T15:02:20.065Z,11.77
2023-04-09T15:05:07.764Z,10.93
2023-04-09T15:07:55.570Z,10.83
2023-04-09T15:10:42.048Z,11.33
2023-04-09T15:13:28.826Z,10.57
2023-04-09T15:16:22.434Z,10.10
2023-04-09T15:19:10.218Z,10.50
2023-04-09T15:21:57.489Z,10.23
2023-04-09T15:24:43.874Z,9.97
2023-04-09T15:27:30.714Z,10.13
2023-04-09T15:30:17.533Z,10.07
2023-04-09T15:33:05.855Z,10.43
2023-04-09T15:35:53.841Z,10.20
2023-04-09T15:38:40.954Z,9.37
2023-04-09T15:41:27.587Z,9.27
2023-04-09T15:44:14.272Z,8.83
2023-04-09T15:47:01.268Z,9.27
2023-04-09T15:49:48.218Z,10.03
2023-04-09T15:52:36.546Z,9.73
2023-04-09T15:55:25.344Z,9.63
2023-04-09T15:58:11.920Z,9.20
2023-04-09T16:00:58.874Z,8.90
2023-04-09T16:03:50.756Z,10.37
2023-04-09T16:06:38.922Z,9.80
2023-04-09T16:09:27.147Z,10.03
2023-04-09T16:12:13.754Z,9.27
2023-04-09T16:15:00.470Z,9.27
2023-04-09T16:17:47.179Z,8.43
2023-04-09T16:20:34.002Z,8.43
2023-04-09T16:23:21.154Z,8.67
2023-04-09T16:26:09.368Z,9.07
2023-04-09T16:28:56.271Z,8.87
2023-04-09T16:31:43.211Z,8.97
2023-04-09T16:34:31.559Z,8.33
2023-04-09T16:37:18.385Z,8.73
2023-04-09T16:40:05.567Z,8.17
2023-04-09T16:42:53.483Z,9.63
2023-04-09T16:45:40.170Z,9.77
2023-04-09T16:48:26.985Z,7.73
2023-04-09T16:51:13.777Z,8.60
2023-04-09T16:54:00.657Z,8.10
2023-04-09T16:56:48.532Z,7.90
2023-04-09T16:59:36.778Z,8.17
2023-04-09T17:02:24.773Z,8.63
2023-04-09T17:05:11.796Z,9.97
2023-04-09T17:07:58.691Z,10.47
2023-04-09T17:10:46.013Z,10.60
2023-04-09T17:13:35.238Z,10.97
2023-04-09T17:16:23.274Z,10.97
2023-04-09T17:19:10.062Z,9.67
2023-04-09T17:21:57.070Z,10.83
2023-04-09T17:24:43.946Z,9.53
2023-04-09T17:27:31.399Z,9.30
2023-04-09T17:30:17.911Z,9.03
2023-04-09T17:33:06.152Z,8.77
2023-04-09T17:35:53.023Z,10.17
2023-04-09T17:38:40.024Z,9.43
2023-04-09T17:41:27.781Z,9.07
2023-04-09T17:44:14.590Z,9.93
2023-04-09T17:47:01.465Z,8.77
2023-04-09T17:49:49.704Z,9.27
2023-04-09T17:52:37.699Z,10.17
2023-04-09T17:55:24.464Z,11.17
2023-04-09T17:58:11.182Z,10.60
2023-04-09T18:00:58.809Z,12.00
2023-04-09T18:03:46.294Z,12.13
2023-04-09T18:06:34.407Z,11.47
2023-04-09T18:09:21.092Z,12.03
2023-04-09T18:12:07.851Z,10.83
2023-04-09T18:14:54.644Z,10.87
2023-04-09T18:17:41.553Z,10.87
2023-04-09T18:20:28.180Z,11.13
2023-04-09T18:23:16.481Z,10.43
2023-04-09T18:26:03.589Z,11.87
2023-04-09T18:28:50.607Z,10.77
2023-04-09T18:31:37.492Z,11.27
2023-04-09T18:34:24.853Z,12.43
2023-04-09T18:37:11.334Z,11.27
2023-04-09T18:40:01.253Z,11.70
2023-04-09T18:42:52.961Z,11.60
2023-04-09T18:45:40.901Z,10.57
2023-04-09T18:48:27.738Z,10.07
2023-04-09T18:51:18.884Z,10.20
2023-04-09T18:54:07.091Z,8.70
2023-04-09T18:56:55.233Z,9.80
2023-04-09T18:59:42.239Z,10.37
2023-04-09T19:02:28.910Z,10.37
2023-04-09T19:05:15.486Z,10.37
2023-04-09T19:08:04.402Z,10.50
2023-04-09T19:10:51.266Z,9.97
2023-04-09T19:13:40.004Z,10.60
2023-04-09T19:16:26.513Z,9.60
2023-04-09T19:19:13.226Z,9.30
2023-04-09T19:22:00.466Z,9.90
2023-04-09T19:24:47.076Z,8.83
2023-04-09T19:27:33.992Z,9.43
2023-04-09T19:30:22.095Z,10.97
2023-04-09T19:33:08.629Z,9.97
2023-04-09T19:35:56.744Z,10.37
2023-04-09T19:38:43.120Z,10.20
2023-04-09T19:41:29.821Z,10.87
2023-04-09T19:44:16.591Z,11.50
2023-04-09T19:47:04.946Z,10.53
2023-04-09T19:49:51.737Z,9.67
2023-04-09T19:52:38.861Z,12.27
2023-04-09T19:55:26.054Z,9.57
2023-04-09T19:58:12.854Z,11.23
2023-04-09T20:00:59.876Z,10.73
2023-04-09T20:03:48.951Z,10.37
2023-04-09T20:06:36.769Z,11.03
2023-04-09T20:09:23.934Z,9.90
2023-04-09T20:12:10.684Z,10.13
2023-04-09T20:14:57.369Z,10.70
2023-04-09T20:17:43.817Z,11.80
2023-04-09T20:20:32.551Z,10.63
2023-04-09T20:23:22.508Z,10.93
2023-04-09T20:26:11.962Z,11.10
2023-04-09T20:28:58.980Z,11.20
2023-04-09T20:31:45.731Z,10.10
2023-04-09T20:34:32.710Z,12.27
2023-04-09T20:37:21.664Z,11.37
2023-04-09T20:40:09.519Z,11.87
2023-04-09T20:42:56.485Z,12.30
2023-04-09T20:45:42.981Z,12.27
2023-04-09T20:48:31.606Z,12.33
2023-04-09T20:51:18.047Z,11.63
2023-04-09T20:54:05.969Z,12.50
2023-04-09T20:56:52.648Z,12.13
2023-04-09T20:59:39.481Z,11.70
2023-04-09T21:02:26.498Z,12.10
2023-04-09T21:05:22.541Z,11.83
2023-04-09T21:08:14.693Z,13.13
2023-04-09T21:11:02.550Z,12.37
2023-04-09T21:13:54.596Z,13.17
2023-04-09T21:16:42.002Z,13.07
2023-04-09T21:19:28.847Z,12.47
2023-04-09T21:22:15.664Z,13.40
2023-04-09T21:25:03.275Z,12.63
2023-04-09T21:27:51.847Z,14.30
2023-04-09T21:30:39.189Z,12.63
2023-04-09T21:33:27.528Z,11.10
2023-04-09T21:36:16.060Z,11.63
2023-04-09T21:39:03.459Z,11.53
2023-04-09T21:41:50.666Z,12.13
2023-04-09T21:44:39.028Z,14.20
2023-04-09T21:47:26.625Z,13.50
2023-04-09T21:50:13.552Z,14.80
2023-04-09T21:53:00.198Z,15.17
2023-04-09T21:55:47.216Z,17.97
2023-04-09T21:58:33.892Z,14.80
2023-04-09T22:01:29.131Z,15.93
2023-04-09T22:04:16.287Z,19.70
2023-04-09T22:07:03.478Z,18.27
2023-04-09T22:09:51.095Z,18.83
2023-04-09T22:12:37.610Z,18.27
2023-04-09T22:15:24.302Z,17.07
2023-04-09T22:18:12.418Z,17.87
2023-04-09T22:20:59.363Z,16.17
2023-04-09T22:23:46.256Z,16.07
2023-04-09T22:26:32.936Z,16.63
2023-04-09T22:29:19.481Z,16.13
2023-04-09T22:32:06.979Z,16.07
2023-04-09T22:34:55.228Z,15.47
2023-04-09T22:37:42.316Z,15.17
2023-04-09T22:40:28.834Z,14.80
2023-04-09T22:43:15.798Z,14.80
2023-04-09T22:46:02.707Z,15.77
2023-04-09T22:48:51.638Z,14.80
2023-04-09T22:51:41.562Z,13.63
2023-04-09T22:54:30.100Z,13.70
2023-04-09T22:57:16.874Z,14.00
2023-04-09T23:00:05.211Z,14.60
2023-04-09T23:02:52.093Z,13.77
2023-04-09T23:05:38.827Z,14.27
2023-04-09T23:08:26.869Z,13.40
2023-04-09T23:11:13.672Z,14.57
2023-04-09T23:14:00.512Z,14.33
2023-04-09T23:16:47.140Z,15.00
2023-04-09T23:19:34.007Z,14.17
2023-04-09T23:22:20.613Z,13.07
2023-04-09T23:25:09.477Z,13.40
2023-04-09T23:27:56.505Z,14.03
2023-04-09T23:30:43.354Z,13.70
2023-04-09T23:33:30.079Z,13.70
2023-04-09T23:36:16.883Z,14.07
2023-04-09T23:39:03.802Z,13.83
2023-04-09T23:41:51.947Z,14.10
2023-04-09T23:44:38.716Z,14.33
2023-04-09T23:47:25.567Z,14.37
2023-04-09T23:50:12.392Z,14.90
2023-04-09T23:53:01.027Z,14.23
2023-04-09T23:55:49.899Z,13.87
2023-04-09T23:58:37.761Z,13.60
